Time;durP1;ratioP1;P1;durP2;ratioP2;P2;SDS_P1;SDS_P2;PMS_P1;PMS_P2;Temp;Humidity;BMP_temperature;BMP_pressure;BME280_temperature;BME280_humidity;BME280_pressure;Samples;Min_cycle;Max_cycle;Signal;HPM_P1;HPM_P2
2023/01/05 00:02:04;;;;;;;17.33;4.00;;;12.40;1.00;;;;;;4857087;29;20567;-89
2023/01/05 00:04:29;;;;;;;11.17;3.33;;;12.30;1.00;;;;;;4856746;29;20191;-87
2023/01/05 00:06:55;;;;;;;13.73;3.70;;;12.30;1.00;;;;;;4860291;29;20211;-87
2023/01/05 00:09:21;;;;;;;16.20;4.47;;;12.30;1.00;;;;;;4857342;29;20212;-86
2023/01/05 00:22:52;;;;;;;21.77;3.60;;;12.30;99.90;;;;;;4858608;29;20459;-87
2023/01/05 00:25:26;;;;;;;12.10;3.50;;;12.30;99.90;;;;;;4862339;29;20564;-87
2023/01/05 00:27:52;;;;;;;17.03;3.97;;;12.30;99.90;;;;;;4857132;29;20527;-87
2023/01/05 00:30:21;;;;;;;17.60;4.40;;;12.30;99.90;;;;;;4860644;29;21059;-86
2023/01/05 00:32:47;;;;;;;11.00;3.63;;;12.30;1.00;;;;;;4864319;29;20482;-87
2023/01/05 00:35:14;;;;;;;22.30;4.57;;;12.20;1.00;;;;;;4866885;29;20535;-87
2023/01/05 00:37:40;;;;;;;13.03;3.83;;;12.20;1.00;;;;;;4855947;29;20196;-86
2023/01/05 00:40:09;;;;;;;22.07;5.97;;;12.20;93.70;;;;;;4860727;29;20505;-88
2023/01/05 00:42:35;;;;;;;23.07;4.10;;;12.20;99.90;;;;;;4858180;29;20449;-87
2023/01/05 00:45:00;;;;;;;14.27;3.67;;;12.20;99.90;;;;;;4869883;29;20455;-89
2023/01/05 00:47:26;;;;;;;19.00;3.30;;;12.20;99.90;;;;;;4864938;29;20264;-86
2023/01/05 00:49:51;;;;;;;16.97;3.10;;;12.10;99.90;;;;;;4855434;29;20696;-88
2023/01/05 00:52:17;;;;;;;12.87;3.77;;;12.10;1.00;;;;;;4856914;29;20226;-87
2023/01/05 00:54:42;;;;;;;15.70;3.30;;;12.10;1.00;;;;;;4867757;29;20189;-87
2023/01/05 00:57:12;;;;;;;18.80;3.60;;;12.10;1.00;;;;;;4871504;29;20207;-87
2023/01/05 00:59:38;;;;;;;16.57;3.70;;;12.10;1.00;;;;;;4857400;29;20220;-86
2023/01/05 01:02:03;;;;;;;18.30;3.93;;;12.10;1.00;;;;;;4860611;29;20456;-87
2023/01/05 01:04:32;;;;;;;18.33;3.90;;;12.10;1.00;;;;;;4855145;29;20188;-87
2023/01/05 01:06:58;;;;;;;19.33;3.67;;;12.10;1.00;;;;;;4867419;29;20188;-87
2023/01/05 01:09:24;;;;;;;40.10;5.27;;;12.10;18.30;;;;;;4857369;29;20475;-89
2023/01/05 01:11:52;;;;;;;14.03;3.07;;;12.10;99.90;;;;;;4857338;29;20463;-87
2023/01/05 01:14:18;;;;;;;21.67;4.53;;;12.10;99.90;;;;;;4858851;29;20784;-86
2023/01/05 01:16:44;;;;;;;14.33;3.90;;;12.00;99.90;;;;;;4868605;29;20531;-87
2023/01/05 01:19:18;;;;;;;19.50;4.20;;;12.00;99.90;;;;;;4863365;29;20252;-87
2023/01/05 01:21:44;;;;;;;13.97;4.47;;;12.00;99.90;;;;;;4857323;29;20435;-87
2023/01/05 01:24:16;;;;;;;24.40;4.27;;;12.00;99.90;;;;;;4856644;29;20452;-87
2023/01/05 01:26:42;;;;;;;14.13;4.33;;;12.00;99.90;;;;;;4860263;29;20231;-87
2023/01/05 01:29:08;;;;;;;12.23;3.43;;;12.00;99.90;;;;;;4858736;29;21248;-89
2023/01/05 01:31:34;;;;;;;10.93;3.60;;;12.00;99.90;;;;;;4863149;29;20445;-87
2023/01/05 01:34:00;;;;;;;18.77;4.40;;;11.90;1.00;;;;;;4858175;29;20307;-87
2023/01/05 01:36:25;;;;;;;14.40;3.93;;;11.90;1.00;;;;;;4862540;29;20523;-86
2023/01/05 01:38:51;;;;;;;16.73;3.30;;;11.90;1.00;;;;;;4869886;29;20555;-87
2023/01/05 01:41:16;;;;;;;28.37;7.77;;;11.90;1.00;;;;;;4862280;29;20196;-87
2023/01/05 01:43:50;;;;;;;17.97;3.83;;;11.90;1.00;;;;;;4854761;29;20278;-86
2023/01/05 01:46:17;;;;;;;24.43;4.30;;;11.90;1.00;;;;;;4861022;29;20678;-87
2023/01/05 01:48:47;;;;;;;25.33;5.80;;;11.90;1.00;;;;;;4866352;29;20452;-88
2023/01/05 01:51:23;;;;;;;22.23;4.50;;;11.90;1.00;;;;;;4871228;29;20444;-87
2023/01/05 01:53:54;;;;;;;22.17;4.97;;;11.90;1.00;;;;;;4856703;29;20481;-87
2023/01/05 01:56:22;;;;;;;20.37;3.70;;;11.90;1.00;;;;;;4856930;29;20816;-87
2023/01/05 01:58:48;;;;;;;24.43;4.20;;;11.90;1.00;;;;;;4863290;29;20444;-87
2023/01/05 02:01:14;;;;;;;13.60;3.77;;;11.90;1.00;;;;;;4863960;29;20548;-88
2023/01/05 02:03:40;;;;;;;28.03;5.00;;;11.90;1.00;;;;;;4865950;29;20461;-90
2023/01/05 02:06:06;;;;;;;20.20;4.10;;;11.90;1.00;;;;;;4860596;29;20844;-88
2023/01/05 02:08:32;;;;;;;29.30;6.27;;;11.90;99.90;;;;;;4862429;29;20451;-87
2023/01/05 02:11:22;;;;;;;17.60;4.40;;;11.80;99.90;;;;;;4867423;29;20464;-88
2023/01/05 02:13:55;;;;;;;22.03;4.87;;;11.80;99.90;;;;;;4877883;29;20468;-88
2023/01/05 02:16:46;;;;;;;23.87;4.80;;;11.70;99.90;;;;;;4878133;29;20459;-88
2023/01/05 02:19:29;;;;;;;16.33;4.87;;;11.70;99.90;;;;;;4861927;29;20465;-87
2023/01/05 02:22:19;;;;;;;19.50;3.97;;;11.60;99.90;;;;;;4863793;29;20569;-86
2023/01/05 02:25:03;;;;;;;24.23;4.03;;;11.60;1.00;;;;;;4866622;29;20442;-88
2023/01/05 02:27:38;;;;;;;23.00;4.80;;;11.60;1.00;;;;;;4867661;29;20457;-86
2023/01/05 02:30:41;;;;;;;19.73;4.27;;;11.60;1.00;;;;;;4858461;29;20464;-86
2023/01/05 02:33:25;;;;;;;21.37;4.20;;;11.60;1.00;;;;;;4861364;29;20533;-87
2023/01/05 02:36:17;;;;;;;22.03;4.77;;;11.60;1.00;;;;;;4853991;29;20441;-86
2023/01/05 02:38:52;;;;;;;19.93;4.73;;;11.70;1.00;;;;;;4867740;29;20952;-86
2023/01/05 02:41:48;;;;;;;25.00;4.57;;;11.70;1.00;;;;;;4858638;29;20583;-89
2023/01/05 02:44:17;;;;;;;20.77;4.40;;;11.70;1.00;;;;;;4851904;29;20452;-87
2023/01/05 02:46:44;;;;;;;26.00;5.90;;;11.70;1.00;;;;;;4872261;29;20455;-87
2023/01/05 02:49:10;;;;;;;11.23;4.40;;;11.70;1.00;;;;;;4870112;29;20480;-87
2023/01/05 02:51:40;;;;;;;20.40;4.77;;;11.60;1.00;;;;;;4862350;29;20456;-87
2023/01/05 02:54:22;;;;;;;24.77;5.10;;;11.60;1.00;;;;;;4859786;29;20493;-87
2023/01/05 02:56:58;;;;;;;21.63;4.90;;;11.60;1.00;;;;;;4863259;29;20470;-87
2023/01/05 02:59:33;;;;;;;20.67;4.20;;;11.60;1.00;;;;;;4867517;29;20539;-87
2023/01/05 03:02:04;;;;;;;25.33;4.90;;;11.70;1.00;;;;;;4853846;29;20527;-87
2023/01/05 03:04:42;;;;;;;25.27;5.20;;;11.70;1.00;;;;;;4864215;29;20491;-88
2023/01/05 03:07:15;;;;;;;14.30;3.50;;;11.70;1.00;;;;;;4868849;29;21092;-87
2023/01/05 03:09:43;;;;;;;25.47;4.37;;;11.70;1.00;;;;;;4864002;29;20480;-86
2023/01/05 03:15:19;;;;;;;29.73;6.83;;;11.70;1.00;;;;;;4857324;29;20833;-87
2023/01/05 03:17:49;;;;;;;19.63;4.97;;;11.70;1.00;;;;;;4869850;29;20517;-87
2023/01/05 03:20:20;;;;;;;25.27;5.70;;;11.70;1.00;;;;;;4864639;29;20459;-86
2023/01/05 03:37:16;;;;;;;26.27;4.60;;;11.70;99.90;;;;;;4858512;29;20435;-87
2023/01/05 03:39:45;;;;;;;17.70;4.00;;;11.70;99.90;;;;;;4865154;29;20478;-86
2023/01/05 03:42:12;;;;;;;24.00;4.63;;;11.70;99.90;;;;;;4870444;29;20449;-87
2023/01/05 03:44:40;;;;;;;20.87;4.60;;;11.70;72.00;;;;;;4864084;29;20437;-87
2023/01/05 03:47:06;;;;;;;17.23;4.40;;;11.80;29.40;;;;;;4871535;29;20441;-87
2023/01/05 03:49:32;;;;;;;14.57;4.33;;;11.80;1.00;;;;;;4862223;29;20480;-86
2023/01/05 03:51:57;;;;;;;22.70;4.27;;;11.80;1.00;;;;;;4866474;29;20256;-87
2023/01/05 03:54:23;;;;;;;22.07;4.70;;;11.80;1.00;;;;;;4868554;29;20551;-89
2023/01/05 03:56:48;;;;;;;18.67;4.63;;;11.80;1.00;;;;;;4859432;29;20212;-87
2023/01/05 03:59:14;;;;;;;16.27;4.67;;;11.80;1.00;;;;;;4860397;29;20204;-87
2023/01/05 04:01:39;;;;;;;24.23;4.50;;;11.80;1.00;;;;;;4863654;29;20575;-86
2023/01/05 04:04:05;;;;;;;19.50;6.00;;;11.90;1.00;;;;;;4869606;29;20246;-87
2023/01/05 04:06:31;;;;;;;26.07;4.87;;;11.80;1.00;;;;;;4863803;29;20246;-87
2023/01/05 04:08:56;;;;;;;26.30;6.73;;;11.90;99.90;;;;;;4859412;29;20197;-87
2023/01/05 04:11:23;;;;;;;25.60;5.13;;;11.90;99.90;;;;;;4859404;29;20341;-87
2023/01/05 04:13:50;;;;;;;18.53;5.57;;;11.90;99.90;;;;;;4862671;29;20230;-87
2023/01/05 04:16:18;;;;;;;17.80;5.10;;;11.90;99.90;;;;;;4866807;29;20823;-86
2023/01/05 04:18:44;;;;;;;15.93;3.83;;;11.90;99.90;;;;;;4865671;29;20496;-87
2023/01/05 04:21:09;;;;;;;21.03;4.00;;;11.90;99.90;;;;;;4857680;29;20535;-87
2023/01/05 04:23:35;;;;;;;24.00;6.30;;;11.90;99.90;;;;;;4866157;29;20684;-87
2023/01/05 04:26:01;;;;;;;21.87;5.33;;;11.90;1.00;;;;;;4868952;29;20266;-87
2023/01/05 04:28:27;;;;;;;18.20;4.20;;;11.80;1.00;;;;;;4871770;29;20506;-86
2023/01/05 04:30:54;;;;;;;17.60;4.63;;;11.80;99.90;;;;;;4858003;29;20468;-86
2023/01/05 04:33:21;;;;;;;19.60;5.20;;;11.70;1.00;;;;;;4856513;29;20909;-86
2023/01/05 04:35:48;;;;;;;18.40;4.90;;;11.70;1.00;;;;;;4854028;29;20797;-87
2023/01/05 04:38:14;;;;;;;27.27;5.17;;;11.60;1.00;;;;;;4883535;29;20448;-88
2023/01/05 04:40:40;;;;;;;17.73;4.83;;;11.60;18.80;;;;;;4861515;29;20544;-87
2023/01/05 04:43:06;;;;;;;17.83;5.10;;;11.60;93.80;;;;;;4859311;29;20585;-86
2023/01/05 04:45:32;;;;;;;26.47;4.33;;;11.60;95.70;;;;;;4862180;29;20443;-87
2023/01/05 04:47:57;;;;;;;26.43;5.20;;;11.60;99.90;;;;;;4866254;29;20496;-87
2023/01/05 04:50:23;;;;;;;22.33;5.23;;;11.50;99.90;;;;;;4864517;29;20560;-87
2023/01/05 04:52:49;;;;;;;27.00;4.60;;;11.60;99.90;;;;;;4858493;29;21068;-86
2023/01/05 04:55:14;;;;;;;27.80;6.13;;;11.60;99.90;;;;;;4859447;29;20440;-87
2023/01/05 04:57:40;;;;;;;17.63;5.07;;;11.60;99.90;;;;;;4858742;29;20200;-87
2023/01/05 05:00:06;;;;;;;23.37;5.23;;;11.60;99.90;;;;;;4869950;29;20204;-87
2023/01/05 05:02:32;;;;;;;32.67;4.97;;;11.60;99.90;;;;;;4854762;29;20196;-87
2023/01/05 05:04:58;;;;;;;33.07;7.07;;;11.60;99.90;;;;;;4860282;29;20468;-87
2023/01/05 05:07:24;;;;;;;16.90;4.37;;;11.60;99.90;;;;;;4860413;29;20452;-87
2023/01/05 05:09:49;;;;;;;27.87;5.70;;;11.60;99.90;;;;;;4862245;29;20269;-86
2023/01/05 05:12:19;;;;;;;21.70;4.60;;;11.60;99.90;;;;;;4867485;29;20206;-87
2023/01/05 05:14:47;;;;;;;18.30;5.07;;;11.60;99.90;;;;;;4862512;29;20619;-87
2023/01/05 05:17:13;;;;;;;28.87;4.70;;;11.50;99.90;;;;;;4852014;29;20492;-86
2023/01/05 05:19:39;;;;;;;29.70;4.90;;;11.50;99.90;;;;;;4859796;29;20457;-87
2023/01/05 05:22:04;;;;;;;23.57;6.80;;;11.50;99.90;;;;;;4860955;29;20852;-87
2023/01/05 05:24:30;;;;;;;33.80;5.73;;;11.50;99.90;;;;;;4865659;29;20199;-87
2023/01/05 05:26:56;;;;;;;39.37;5.80;;;11.50;99.90;;;;;;4858381;29;20193;-87
2023/01/05 05:29:22;;;;;;;25.53;8.53;;;11.50;99.90;;;;;;4854283;29;20213;-87
2023/01/05 05:31:48;;;;;;;19.07;6.00;;;11.50;99.90;;;;;;4866602;29;20187;-87
2023/01/05 05:34:17;;;;;;;24.30;4.93;;;11.50;99.90;;;;;;4864502;29;20850;-91
2023/01/05 05:36:43;;;;;;;18.70;5.00;;;11.50;99.90;;;;;;4866779;29;20823;-87
2023/01/05 05:39:11;;;;;;;29.87;5.13;;;11.50;99.90;;;;;;4860186;29;20441;-87
2023/01/05 05:41:37;;;;;;;27.40;5.70;;;11.50;99.90;;;;;;4861241;29;20234;-87
2023/01/05 05:44:02;;;;;;;26.73;5.40;;;11.50;99.90;;;;;;4865614;29;20490;-86
2023/01/05 05:46:28;;;;;;;23.60;5.40;;;11.60;99.90;;;;;;4875362;29;20195;-86
2023/01/05 05:48:55;;;;;;;18.23;4.57;;;11.60;99.90;;;;;;4855892;29;20200;-87
2023/01/05 05:51:20;;;;;;;30.33;5.63;;;11.60;99.90;;;;;;4883970;29;20445;-86
2023/01/05 05:53:46;;;;;;;24.80;6.10;;;11.60;99.90;;;;;;4888638;29;20460;-91
2023/01/05 05:56:11;;;;;;;24.80;5.80;;;11.60;99.90;;;;;;4877263;29;20561;-86
2023/01/05 05:58:37;;;;;;;23.60;5.77;;;11.60;99.90;;;;;;4862232;29;20220;-86
2023/01/05 06:01:02;;;;;;;23.60;5.43;;;11.60;99.90;;;;;;4862525;29;20228;-86
2023/01/05 06:03:28;;;;;;;21.90;6.50;;;11.60;99.90;;;;;;4866709;29;20200;-87
2023/01/05 06:05:54;;;;;;;25.30;6.03;;;11.60;99.90;;;;;;4872561;29;20540;-88
2023/01/05 06:08:20;;;;;;;22.33;6.90;;;11.60;99.90;;;;;;4858995;29;20199;-88
2023/01/05 06:10:48;;;;;;;29.90;5.57;;;11.60;99.90;;;;;;4859714;29;20688;-87
2023/01/05 06:13:13;;;;;;;20.53;5.73;;;11.60;96.20;;;;;;4859811;29;20479;-87
2023/01/05 06:15:39;;;;;;;24.50;5.10;;;11.60;75.10;;;;;;4866134;29;20827;-87
2023/01/05 06:18:04;;;;;;;30.40;5.30;;;11.70;58.70;;;;;;4871580;29;20187;-88
2023/01/05 06:20:30;;;;;;;29.83;6.80;;;11.70;35.00;;;;;;4869068;29;20678;-86
2023/01/05 06:22:55;;;;;;;23.87;6.00;;;11.60;16.40;;;;;;4860428;29;20596;-86
2023/01/05 06:25:21;;;;;;;29.33;7.00;;;11.70;7.70;;;;;;4865714;29;20208;-88
2023/01/05 06:27:46;;;;;;;33.57;6.77;;;11.60;1.00;;;;;;4868751;29;20191;-87
2023/01/05 06:30:13;;;;;;;24.43;5.70;;;11.70;1.00;;;;;;4873679;29;20207;-86
2023/01/05 06:32:38;;;;;;;26.23;5.43;;;11.60;1.00;;;;;;4860184;29;20216;-86
2023/01/05 06:35:04;;;;;;;25.27;5.67;;;11.70;1.00;;;;;;4863655;29;21225;-86
2023/01/05 06:37:30;;;;;;;26.47;5.33;;;11.70;1.00;;;;;;4865568;29;20576;-87
2023/01/05 06:39:55;;;;;;;20.23;4.83;;;11.70;1.00;;;;;;4863924;29;20479;-87
2023/01/05 06:42:21;;;;;;;26.87;5.60;;;11.70;1.00;;;;;;4867280;29;20188;-87
2023/01/05 06:44:46;;;;;;;22.87;4.80;;;11.70;1.00;;;;;;4850720;29;20619;-87
2023/01/05 06:47:13;;;;;;;29.97;5.60;;;11.70;1.00;;;;;;4861509;29;20256;-87
2023/01/05 06:49:38;;;;;;;14.77;4.87;;;11.70;1.00;;;;;;4862115;29;20906;-87
2023/01/05 06:52:04;;;;;;;17.40;5.20;;;11.70;1.00;;;;;;4870164;29;20444;-86
2023/01/05 06:54:29;;;;;;;30.00;5.40;;;11.70;1.00;;;;;;4861737;29;20216;-86
2023/01/05 06:56:55;;;;;;;23.13;5.60;;;11.80;1.00;;;;;;4858241;29;20555;-86
2023/01/05 06:59:20;;;;;;;26.47;6.53;;;11.80;1.00;;;;;;4860498;29;20212;-87
2023/01/05 07:01:46;;;;;;;19.20;7.37;;;11.70;1.00;;;;;;4870222;29;20566;-87
2023/01/05 07:04:11;;;;;;;32.77;8.13;;;11.70;1.00;;;;;;4863672;29;20200;-87
2023/01/05 07:06:37;;;;;;;24.77;5.50;;;11.80;1.00;;;;;;4859766;29;20191;-88
2023/01/05 07:09:03;;;;;;;30.47;7.50;;;11.70;1.00;;;;;;4859675;29;20197;-86
2023/01/05 07:11:28;;;;;;;24.00;5.53;;;11.80;1.00;;;;;;4862185;29;20195;-87
2023/01/05 07:13:54;;;;;;;25.13;5.87;;;11.70;1.00;;;;;;4866475;29;20220;-88
2023/01/05 07:16:20;;;;;;;30.63;7.20;;;11.70;1.00;;;;;;4858547;29;20682;-87
2023/01/05 07:18:45;;;;;;;23.50;5.00;;;11.70;99.90;;;;;;4867388;29;20207;-87
2023/01/05 07:21:11;;;;;;;33.30;6.90;;;11.70;99.90;;;;;;4860116;29;20211;-87
2023/01/05 07:23:36;;;;;;;23.37;6.33;;;11.70;99.90;;;;;;4869813;29;20189;-86
2023/01/05 07:26:03;;;;;;;22.10;6.23;;;11.70;99.90;;;;;;4867475;29;20578;-86
2023/01/05 07:28:29;;;;;;;26.83;5.70;;;11.70;99.90;;;;;;4860829;29;20657;-88
2023/01/05 07:31:01;;;;;;;29.00;5.73;;;11.70;99.90;;;;;;4856719;29;20477;-86
2023/01/05 07:33:27;;;;;;;20.57;5.93;;;11.70;99.90;;;;;;4867811;29;20216;-87
2023/01/05 07:35:52;;;;;;;23.07;5.53;;;11.70;99.90;;;;;;4866312;29;20444;-87
2023/01/05 07:38:18;;;;;;;32.47;6.50;;;11.80;99.90;;;;;;4869645;29;20204;-86
2023/01/05 07:40:47;;;;;;;17.73;4.70;;;11.80;99.90;;;;;;4862214;29;20253;-87
2023/01/05 07:43:12;;;;;;;20.40;5.60;;;11.90;99.90;;;;;;4864168;29;20198;-87
2023/01/05 07:45:38;;;;;;;25.37;6.60;;;11.90;1.00;;;;;;4869669;29;20460;-86
2023/01/05 07:48:04;;;;;;;28.87;5.80;;;11.90;1.00;;;;;;4871789;29;20282;-86
2023/01/05 07:50:31;;;;;;;27.83;6.00;;;11.80;1.00;;;;;;4875411;29;20207;-87
2023/01/05 07:53:00;;;;;;;31.13;7.30;;;11.90;1.00;;;;;;4854040;29;20204;-86
2023/01/05 07:55:26;;;;;;;30.07;5.77;;;11.80;1.00;;;;;;4861584;29;20439;-86
2023/01/05 07:57:51;;;;;;;21.13;4.60;;;11.80;1.00;;;;;;4855244;29;20717;-86
2023/01/05 08:00:19;;;;;;;20.17;4.93;;;11.80;1.00;;;;;;4853550;29;20302;-87
2023/01/05 08:02:45;;;;;;;29.00;5.37;;;11.80;1.00;;;;;;4860979;29;20595;-87
2023/01/05 08:05:10;;;;;;;24.80;5.00;;;11.80;1.00;;;;;;4861757;29;20540;-87
2023/01/05 08:07:36;;;;;;;22.90;6.23;;;11.80;1.00;;;;;;4864541;29;20197;-87
2023/01/05 08:15:30;;;;;;;30.57;5.10;;;11.90;1.00;;;;;;4860072;29;21125;-87
2023/01/05 08:17:55;;;;;;;29.40;5.47;;;11.90;1.00;;;;;;4860250;29;20448;-87
2023/01/05 08:20:21;;;;;;;25.50;6.00;;;11.90;1.00;;;;;;4863889;29;20212;-87
2023/01/05 08:22:51;;;;;;;19.87;5.43;;;11.90;1.00;;;;;;4866956;29;20220;-87
2023/01/05 08:25:16;;;;;;;20.20;5.20;;;12.00;99.90;;;;;;4863831;29;20279;-87
2023/01/05 08:27:42;;;;;;;24.40;5.23;;;12.00;99.90;;;;;;4861945;29;20533;-87
2023/01/05 08:30:08;;;;;;;24.03;7.03;;;12.00;99.90;;;;;;4863190;29;20211;-87
2023/01/05 08:32:33;;;;;;;22.80;4.87;;;12.00;99.90;;;;;;4867156;29;20184;-86
2023/01/05 08:34:59;;;;;;;33.20;7.00;;;12.00;99.90;;;;;;4868365;29;20452;-86
2023/01/05 08:37:24;;;;;;;31.83;6.10;;;12.00;99.90;;;;;;4865351;29;20192;-87
2023/01/05 08:39:50;;;;;;;31.27;6.90;;;12.00;1.00;;;;;;4856399;29;20866;-88
2023/01/05 08:42:18;;;;;;;27.00;7.70;;;12.10;1.00;;;;;;4860558;29;20307;-86
2023/01/05 08:44:43;;;;;;;31.57;6.60;;;12.10;1.00;;;;;;4862676;29;20187;-87
2023/01/05 08:47:09;;;;;;;31.13;6.40;;;12.00;1.00;;;;;;4864876;29;20819;-87
2023/01/05 08:49:34;;;;;;;28.53;6.17;;;12.00;1.00;;;;;;4864020;29;20728;-86
2023/01/05 08:52:00;;;;;;;28.17;5.53;;;12.10;1.00;;;;;;4855468;29;20188;-87
2023/01/05 08:54:25;;;;;;;18.93;5.50;;;12.10;1.00;;;;;;4858160;29;20212;-86
2023/01/05 08:56:51;;;;;;;21.10;5.10;;;12.10;99.90;;;;;;4860750;29;20232;-88
2023/01/05 08:59:17;;;;;;;23.70;5.77;;;12.10;99.90;;;;;;4862140;29;20235;-87
2023/01/05 09:01:43;;;;;;;28.80;6.13;;;12.10;99.90;;;;;;4865342;29;20216;-87
2023/01/05 09:04:08;;;;;;;26.37;6.30;;;12.10;99.90;;;;;;4856128;29;21642;-87
2023/01/05 09:06:34;;;;;;;26.30;6.47;;;12.20;99.90;;;;;;4856882;29;20188;-87
2023/01/05 09:08:59;;;;;;;22.67;6.63;;;12.20;99.90;;;;;;4857829;29;20185;-87
2023/01/05 09:11:25;;;;;;;25.23;6.50;;;12.20;99.90;;;;;;4856598;29;20692;-86
2023/01/05 09:14:00;;;;;;;24.10;6.80;;;12.20;99.90;;;;;;4861914;29;20231;-87
2023/01/05 09:16:29;;;;;;;31.37;7.70;;;12.20;99.90;;;;;;4844741;29;20192;-87
2023/01/05 09:18:57;;;;;;;26.90;6.20;;;12.20;1.00;;;;;;4844327;29;20433;-87
2023/01/05 09:21:22;;;;;;;27.10;5.70;;;12.30;1.00;;;;;;4848767;29;20515;-87
2023/01/05 09:23:48;;;;;;;28.93;7.53;;;12.30;1.00;;;;;;4852449;29;21062;-87
2023/01/05 09:26:20;;;;;;;29.47;7.20;;;12.30;1.00;;;;;;4853652;29;20193;-87
2023/01/05 09:28:46;;;;;;;29.00;6.50;;;12.40;99.90;;;;;;4866976;29;20185;-87
2023/01/05 09:31:17;;;;;;;25.73;5.93;;;12.40;99.90;;;;;;4864553;29;20483;-87
2023/01/05 09:33:52;;;;;;;27.60;5.90;;;12.40;99.90;;;;;;4859921;29;20622;-86
2023/01/05 09:36:18;;;;;;;21.93;5.87;;;12.40;99.90;;;;;;4853885;29;20449;-89
2023/01/05 09:38:49;;;;;;;20.67;6.40;;;12.40;74.70;;;;;;4856444;29;20443;-88
2023/01/05 09:41:28;;;;;;;19.93;5.20;;;12.50;1.00;;;;;;4854950;29;20479;-88
2023/01/05 09:44:13;;;;;;;26.20;6.10;;;12.50;1.00;;;;;;4853975;29;20452;-87
2023/01/05 09:46:45;;;;;;;28.30;5.83;;;12.50;1.00;;;;;;4858405;29;20893;-86
2023/01/05 09:49:16;;;;;;;31.53;6.87;;;12.70;99.90;;;;;;4852356;29;20516;-89
2023/01/05 09:51:42;;;;;;;21.87;5.97;;;12.80;58.60;;;;;;4853880;29;20449;-88
2023/01/05 09:54:16;;;;;;;21.70;6.13;;;12.80;1.00;;;;;;4851137;29;20541;-88
2023/01/05 09:56:44;;;;;;;28.13;6.53;;;12.90;1.00;;;;;;4865881;29;20496;-89
2023/01/05 09:59:09;;;;;;;22.07;5.33;;;13.00;99.90;;;;;;4857757;29;20446;-88
2023/01/05 10:02:17;;;;;;;27.23;6.30;;;13.10;99.90;;;;;;4854644;29;20501;-88
2023/01/05 10:05:05;;;;;;;;;;;;;;;;;;;;;
2023/01/05 10:08:07;;;;;;;26.50;7.17;;;13.40;1.00;;;;;;4848800;29;20789;-88
2023/01/05 10:14:02;;;;;;;27.60;7.10;;;13.60;99.90;;;;;;4857719;29;21202;-89
2023/01/05 10:16:28;;;;;;;24.23;6.63;;;13.70;99.90;;;;;;4850861;29;20642;-88
2023/01/05 10:18:54;;;;;;;29.80;6.47;;;13.70;99.90;;;;;;4851861;29;20531;-89
2023/01/05 10:25:13;;;;;;;25.53;7.00;;;14.00;1.00;;;;;;4860682;29;20851;-89
2023/01/05 10:27:44;;;;;;;26.50;6.53;;;14.10;1.00;;;;;;4842116;29;20968;-89
2023/01/05 10:30:26;;;;;;;27.80;6.57;;;14.30;1.00;;;;;;4865787;29;21051;-90
2023/01/05 10:32:59;;;;;;;29.67;6.40;;;14.50;99.90;;;;;;4862649;29;20511;-89
2023/01/05 10:35:48;;;;;;;19.13;5.70;;;14.50;99.90;;;;;;4861005;29;21080;-90
2023/01/05 10:38:36;;;;;;;30.40;6.40;;;14.50;99.90;;;;;;4860121;29;20787;-88
2023/01/05 10:41:20;;;;;;;32.50;7.57;;;14.80;99.90;;;;;;4855091;29;20467;-89
2023/01/05 10:44:20;;;;;;;29.30;6.73;;;15.10;99.90;;;;;;4868955;29;20452;-90
2023/01/05 10:46:47;;;;;;;30.67;7.63;;;15.20;25.90;;;;;;4868897;29;20457;-89
2023/01/05 10:49:24;;;;;;;20.73;5.60;;;15.40;1.00;;;;;;4861960;29;20466;-90
2023/01/05 10:51:51;;;;;;;27.60;5.87;;;15.40;1.00;;;;;;4861422;29;20453;-89
2023/01/05 10:54:39;;;;;;;32.27;6.67;;;15.40;1.00;;;;;;4861886;29;20473;-90
2023/01/05 10:57:33;;;;;;;30.27;7.53;;;15.50;1.00;;;;;;4845778;29;20474;-89
2023/01/05 11:00:02;;;;;;;19.20;5.50;;;15.60;1.00;;;;;;4843412;29;20442;-89
2023/01/05 11:02:32;;;;;;;23.03;6.50;;;15.50;1.00;;;;;;4861550;29;20425;-90
2023/01/05 11:05:05;;;;;;;30.27;6.27;;;15.30;1.00;;;;;;4884383;29;20448;-91
2023/01/05 11:07:31;;;;;;;22.60;5.10;;;15.10;1.00;;;;;;4860134;29;20532;-89
2023/01/05 11:09:57;;;;;;;21.67;5.27;;;15.00;1.00;;;;;;4861153;29;20605;-90
2023/01/05 11:12:24;;;;;;;25.47;5.90;;;15.10;1.00;;;;;;4856389;29;20453;-90
2023/01/05 11:14:55;;;;;;;17.33;4.87;;;15.30;1.00;;;;;;4846406;29;20194;-89
2023/01/05 11:17:23;;;;;;;27.53;6.70;;;15.40;1.00;;;;;;4874310;29;20453;-90
2023/01/05 11:19:52;;;;;;;22.10;5.50;;;15.50;1.00;;;;;;4872416;29;20938;-90
2023/01/05 11:22:39;;;;;;;23.53;6.00;;;15.50;1.00;;;;;;4843514;29;20435;-89
2023/01/05 11:25:23;;;;;;;19.97;5.10;;;15.60;1.00;;;;;;4842017;29;21011;-89
2023/01/05 11:28:09;;;;;;;21.90;5.67;;;15.50;1.00;;;;;;4846987;29;20976;-90
2023/01/05 11:30:46;;;;;;;23.93;6.63;;;15.40;1.00;;;;;;4869941;29;20448;-89
2023/01/05 11:33:20;;;;;;;16.97;4.73;;;15.40;1.00;;;;;;4878854;29;20474;-89
2023/01/05 11:35:49;;;;;;;33.97;6.90;;;15.80;1.00;;;;;;4870243;29;20753;-90
2023/01/05 11:38:26;;;;;;;31.90;6.00;;;16.70;1.00;;;;;;4880872;29;20960;-90
2023/01/05 11:40:55;;;;;;;20.60;5.00;;;18.10;1.00;;;;;;4871092;29;20439;-91
2023/01/05 11:43:22;;;;;;;14.27;4.70;;;19.00;1.00;;;;;;4851247;29;20467;-91
2023/01/05 11:45:54;;;;;;;18.20;5.90;;;19.30;99.90;;;;;;4849502;29;20451;-91
2023/01/05 11:48:26;;;;;;;20.67;5.33;;;19.70;99.90;;;;;;4869837;29;20887;-91
2023/01/05 11:50:56;;;;;;;25.27;5.20;;;19.70;99.90;;;;;;4865424;29;20614;-90
2023/01/05 11:53:30;;;;;;;16.27;4.60;;;19.90;99.90;;;;;;4862460;29;20442;-91
2023/01/05 11:56:22;;;;;;;27.83;6.37;;;20.20;99.90;;;;;;4854394;29;20439;-91
2023/01/05 11:58:50;;;;;;;21.73;5.83;;;19.80;99.90;;;;;;4865735;29;20498;-92
2023/01/05 12:01:43;;;;;;;24.93;5.27;;;19.80;99.90;;;;;;4863646;29;20535;-92
2023/01/05 12:04:46;;;;;;;18.00;5.60;;;19.50;99.90;;;;;;4856614;29;21013;-91
2023/01/05 12:07:29;;;;;;;31.90;5.50;;;18.90;99.90;;;;;;4852883;29;20524;-91
2023/01/05 12:10:11;;;;;;;20.17;4.97;;;18.40;99.90;;;;;;4860743;29;20466;-91
2023/01/05 12:12:49;;;;;;;26.20;5.57;;;17.70;99.90;;;;;;4872016;29;20526;-91
2023/01/05 12:15:29;;;;;;;23.87;6.10;;;17.40;99.90;;;;;;4868843;29;20441;-91
2023/01/05 12:18:04;;;;;;;18.30;4.33;;;17.20;99.90;;;;;;4860714;29;20431;-91
2023/01/05 12:20:55;;;;;;;26.70;6.77;;;16.70;99.90;;;;;;4850472;29;20505;-91
2023/01/05 12:23:55;;;;;;;28.27;5.93;;;16.20;99.90;;;;;;4855702;29;20574;-91
2023/01/05 12:26:58;;;;;;;27.67;6.10;;;15.70;99.90;;;;;;4874466;29;20944;-91
2023/01/05 12:29:54;;;;;;;23.77;5.43;;;15.20;99.90;;;;;;4877951;29;20463;-90
2023/01/05 12:32:58;;;;;;;17.17;4.60;;;14.90;99.90;;;;;;4879816;29;20426;-91
2023/01/05 12:35:29;;;;;;;25.03;6.63;;;14.70;99.90;;;;;;4866789;29;20983;-90
2023/01/05 12:38:06;;;;;;;25.30;5.43;;;14.80;1.00;;;;;;4866238;29;20484;-89
2023/01/05 12:40:59;;;;;;;25.83;5.10;;;15.20;1.00;;;;;;4853849;29;20472;-89
2023/01/05 12:43:52;;;;;;;23.20;6.13;;;15.60;99.90;;;;;;4855739;29;20484;-90
2023/01/05 12:46:26;;;;;;;18.50;5.20;;;15.70;99.90;;;;;;4853024;29;20443;-90
2023/01/05 12:48:57;;;;;;;25.30;5.57;;;15.70;99.90;;;;;;4849993;29;21002;-91
2023/01/05 12:51:40;;;;;;;30.20;5.00;;;15.60;99.90;;;;;;4853680;29;20454;-90
2023/01/05 12:54:35;;;;;;;27.83;6.20;;;15.50;99.90;;;;;;4859858;29;20451;-90
2023/01/05 12:57:09;;;;;;;27.90;6.07;;;15.30;99.90;;;;;;4855995;29;21112;-89
2023/01/05 12:59:42;;;;;;;30.07;7.80;;;15.10;99.90;;;;;;4867387;29;20476;-90
2023/01/05 13:02:25;;;;;;;25.63;7.00;;;14.80;99.90;;;;;;4861046;29;20961;-91
2023/01/05 13:04:59;;;;;;;19.57;5.80;;;14.70;1.00;;;;;;4845423;29;20465;-89
2023/01/05 13:07:48;;;;;;;22.27;5.90;;;14.60;1.00;;;;;;4857091;29;20479;-90
2023/01/05 13:10:22;;;;;;;31.57;6.63;;;14.50;1.00;;;;;;4845713;29;20469;-90
2023/01/05 13:12:55;;;;;;;30.20;6.70;;;14.40;1.00;;;;;;4843817;29;20430;-92
2023/01/05 13:15:27;;;;;;;25.70;5.90;;;14.30;1.00;;;;;;4873086;29;20525;-91
2023/01/05 13:17:55;;;;;;;25.60;7.37;;;14.30;1.00;;;;;;4847079;29;20784;-90
2023/01/05 13:20:34;;;;;;;35.33;6.63;;;14.20;1.00;;;;;;4861559;29;20531;-89
2023/01/05 13:23:08;;;;;;;18.97;5.73;;;14.20;1.00;;;;;;4862780;29;20474;-90
2023/01/05 13:25:44;;;;;;;21.40;6.27;;;14.10;1.00;;;;;;4888596;29;20531;-90
2023/01/05 13:28:18;;;;;;;29.77;6.03;;;14.00;1.00;;;;;;4896170;29;20451;-90
2023/01/05 13:30:59;;;;;;;31.80;7.63;;;14.00;1.00;;;;;;4860411;29;20465;-89
2023/01/05 13:33:58;;;;;;;24.53;6.00;;;13.90;1.00;;;;;;4868764;29;20442;-90
2023/01/05 13:36:36;;;;;;;22.00;5.60;;;13.80;1.00;;;;;;4873866;29;20448;-89
2023/01/05 13:39:39;;;;;;;21.80;6.03;;;13.70;1.00;;;;;;4845229;29;20457;-90
2023/01/05 13:42:30;;;;;;;18.90;6.30;;;13.80;34.80;;;;;;4854854;29;20490;-89
2023/01/05 13:45:51;;;;;;;31.77;7.70;;;13.80;82.40;;;;;;4843291;29;20439;-90